createdAt,value
2022-10-29T00:02:02.204Z,12.60
2022-10-29T00:04:29.025Z,12.50
2022-10-29T00:06:55.802Z,12.50
2022-10-29T00:09:22.528Z,12.50
2022-10-29T00:11:49.297Z,12.50
2022-10-29T00:14:16.846Z,12.60
2022-10-29T00:16:43.516Z,12.60
2022-10-29T00:19:10.351Z,12.60
2022-10-29T00:21:38.094Z,12.50
2022-10-29T00:24:05.378Z,12.50
2022-10-29T00:26:32.222Z,12.40
2022-10-29T00:28:58.960Z,12.50
2022-10-29T00:31:25.930Z,12.50
2022-10-29T00:33:54.628Z,12.50
2022-10-29T00:36:24.055Z,12.40
2022-10-29T00:38:51.088Z,12.30
2022-10-29T00:41:21.280Z,12.20
2022-10-29T00:43:51.260Z,12.20
2022-10-29T00:46:34.475Z,12.20
2022-10-29T00:49:02.464Z,12.10
2022-10-29T00:51:31.769Z,12.10
2022-10-29T00:54:08.764Z,12.20
2022-10-29T00:56:38.918Z,12.20
2022-10-29T00:59:07.559Z,12.30
2022-10-29T01:01:35.030Z,12.20
2022-10-29T01:04:02.908Z,12.10
2022-10-29T01:06:31.369Z,12.10
2022-10-29T01:08:58.025Z,12.00
2022-10-29T01:11:45.632Z,12.00
2022-10-29T01:14:35.538Z,12.10
2022-10-29T01:17:18.399Z,12.00
2022-10-29T01:20:21.894Z,12.00
2022-10-29T01:23:16.235Z,12.00
2022-10-29T01:26:14.264Z,11.90
2022-10-29T01:29:18.737Z,11.90
2022-10-29T01:32:06.480Z,11.80
2022-10-29T01:34:56.675Z,11.90
2022-10-29T01:37:26.133Z,11.80
2022-10-29T01:40:17.508Z,11.80
2022-10-29T01:42:52.946Z,11.80
2022-10-29T01:45:27.063Z,11.70
2022-10-29T01:48:01.403Z,11.70
2022-10-29T01:50:29.067Z,11.70
2022-10-29T01:52:56.914Z,11.60
2022-10-29T01:55:30.487Z,11.60
2022-10-29T01:57:57.698Z,11.70
2022-10-29T02:00:25.593Z,11.60
2022-10-29T02:03:09.698Z,11.50
2022-10-29T02:05:45.744Z,11.50
2022-10-29T02:08:44.744Z,11.50
2022-10-29T02:11:14.283Z,11.50
2022-10-29T02:13:49.260Z,11.50
2022-10-29T02:16:17.451Z,11.50
2022-10-29T02:18:47.459Z,11.50
2022-10-29T02:21:18.654Z,11.50
2022-10-29T02:23:45.392Z,11.50
2022-10-29T02:26:12.558Z,11.50
2022-10-29T02:28:39.231Z,11.50
2022-10-29T02:31:06.257Z,11.50
2022-10-29T02:33:33.133Z,11.50
2022-10-29T02:35:59.811Z,11.40
2022-10-29T02:38:26.539Z,11.40
2022-10-29T02:40:53.222Z,11.30
2022-10-29T02:46:09.284Z,11.30
2022-10-29T02:48:35.962Z,11.20
2022-10-29T02:51:02.652Z,11.20
2022-10-29T02:53:29.320Z,11.20
2022-10-29T02:55:56.020Z,11.10
2022-10-29T02:58:22.760Z,11.20
2022-10-29T03:00:50.439Z,11.20
2022-10-29T03:03:17.204Z,11.20
2022-10-29T03:05:48.121Z,11.10
2022-10-29T03:08:16.248Z,11.10
2022-10-29T03:10:43.121Z,11.10
2022-10-29T03:13:10.330Z,11.10
2022-10-29T03:15:37.469Z,11.10
2022-10-29T03:18:05.047Z,11.10
2022-10-29T03:20:32.038Z,11.00
2022-10-29T03:22:58.767Z,11.00
2022-10-29T03:25:25.412Z,11.00
2022-10-29T03:27:52.093Z,11.00
2022-10-29T03:30:18.932Z,11.00
2022-10-29T03:32:47.094Z,10.90
2022-10-29T03:35:15.263Z,11.00
2022-10-29T03:37:42.131Z,11.00
2022-10-29T03:40:09.314Z,10.90
2022-10-29T03:42:36.220Z,10.90
2022-10-29T03:45:03.008Z,10.90
2022-10-29T03:47:29.799Z,10.90
2022-10-29T03:49:56.484Z,10.90
2022-10-29T03:52:23.194Z,10.90
2022-10-29T03:54:49.885Z,10.80
2022-10-29T03:57:16.622Z,10.90
2022-10-29T03:59:45.886Z,10.90
2022-10-29T04:02:15.306Z,10.90
2022-10-29T04:04:42.008Z,10.90
2022-10-29T04:07:08.700Z,10.90
2022-10-29T04:09:35.355Z,10.80
2022-10-29T04:12:03.311Z,10.80
2022-10-29T04:14:30.103Z,10.80
2022-10-29T04:16:58.525Z,10.70
2022-10-29T04:19:25.211Z,10.70
2022-10-29T04:24:12.183Z,10.80
2022-10-29T04:32:40.188Z,10.70
2022-10-29T04:35:07.229Z,10.60
2022-10-29T04:37:33.977Z,10.60
2022-10-29T04:40:00.632Z,10.60
2022-10-29T04:42:27.320Z,10.70
2022-10-29T04:44:54.123Z,10.70
2022-10-29T04:47:20.945Z,10.60
2022-10-29T04:49:47.616Z,10.60
2022-10-29T04:52:14.350Z,10.60
2022-10-29T04:54:41.144Z,10.70
2022-10-29T04:57:07.827Z,10.60
2022-10-29T04:59:34.679Z,10.70
2022-10-29T05:02:01.385Z,10.70
2022-10-29T05:04:29.528Z,10.60
2022-10-29T05:06:56.223Z,10.70
2022-10-29T05:09:23.039Z,10.70
2022-10-29T05:11:49.923Z,10.70
2022-10-29T05:14:16.651Z,10.60
2022-10-29T05:16:43.429Z,10.60
2022-10-29T05:19:10.167Z,10.60
2022-10-29T05:21:36.856Z,10.60
2022-10-29T05:24:03.758Z,10.50
2022-10-29T05:26:32.389Z,10.50
2022-10-29T05:28:59.113Z,10.60
2022-10-29T05:31:25.797Z,10.60
2022-10-29T05:33:55.534Z,10.60
2022-10-29T05:36:22.940Z,10.60
2022-10-29T05:38:49.790Z,10.60
2022-10-29T05:41:17.129Z,10.60
2022-10-29T05:43:43.813Z,10.50
2022-10-29T05:46:10.655Z,10.50
2022-10-29T05:48:37.340Z,10.60
2022-10-29T05:51:04.501Z,10.60
2022-10-29T05:53:31.219Z,10.60
2022-10-29T05:55:59.018Z,10.60
2022-10-29T05:58:25.779Z,10.50
2022-10-29T06:00:52.462Z,10.60
2022-10-29T06:03:21.139Z,10.60
2022-10-29T06:05:48.696Z,10.60
2022-10-29T06:08:15.776Z,10.70
2022-10-29T06:10:42.902Z,10.70
2022-10-29T06:13:13.974Z,10.70
2022-10-29T06:15:40.842Z,10.70
2022-10-29T06:18:08.065Z,10.70
2022-10-29T06:20:34.839Z,10.60
2022-10-29T06:23:01.548Z,10.70
2022-10-29T06:25:28.783Z,10.70
2022-10-29T06:28:03.667Z,10.70
2022-10-29T06:30:31.609Z,10.70
2022-10-29T06:32:59.666Z,10.80
2022-10-29T06:35:26.804Z,11.40
2022-10-29T06:37:53.872Z,11.60
2022-10-29T06:40:20.789Z,11.60
2022-10-29T06:42:47.536Z,11.70
2022-10-29T06:45:14.581Z,11.70
2022-10-29T06:47:41.273Z,11.60
2022-10-29T06:50:09.270Z,11.50
2022-10-29T06:52:37.604Z,11.60
2022-10-29T06:55:05.706Z,11.60
2022-10-29T06:57:32.627Z,11.80
2022-10-29T07:00:03.679Z,11.60
2022-10-29T07:02:34.147Z,11.50
2022-10-29T07:05:00.949Z,11.40
2022-10-29T07:07:29.195Z,11.70
2022-10-29T07:09:55.953Z,11.80
2022-10-29T07:12:22.611Z,11.90
2022-10-29T07:14:49.437Z,12.00
2022-10-29T07:17:16.083Z,11.80
2022-10-29T07:19:42.758Z,11.80
2022-10-29T07:22:09.424Z,11.90
2022-10-29T07:24:36.124Z,11.80
2022-10-29T07:27:02.912Z,11.70
2022-10-29T07:29:29.581Z,11.70
2022-10-29T07:31:56.250Z,11.60
2022-10-29T07:34:22.946Z,11.60
2022-10-29T07:36:49.679Z,11.60
2022-10-29T07:39:16.438Z,11.70
2022-10-29T07:41:43.113Z,11.70
2022-10-29T07:44:09.771Z,11.80
2022-10-29T07:46:36.501Z,11.80
2022-10-29T07:49:03.332Z,11.80
2022-10-29T07:51:30.013Z,11.80
2022-10-29T07:53:56.687Z,11.70
2022-10-29T07:56:23.422Z,11.90
2022-10-29T07:58:50.166Z,11.80
2022-10-29T08:01:17.027Z,11.80
2022-10-29T08:03:43.811Z,11.90
2022-10-29T08:06:10.495Z,11.90
2022-10-29T08:08:37.812Z,11.90
2022-10-29T08:11:05.227Z,11.90
2022-10-29T08:13:31.950Z,12.00
2022-10-29T08:15:58.712Z,12.00
2022-10-29T08:18:25.489Z,12.00
2022-10-29T08:20:52.303Z,12.10
2022-10-29T08:23:19.108Z,12.10
2022-10-29T08:25:45.866Z,12.10
2022-10-29T08:28:15.242Z,12.20
2022-10-29T08:30:45.780Z,12.30
2022-10-29T08:33:12.597Z,12.50
2022-10-29T08:35:39.359Z,12.70
2022-10-29T08:38:06.208Z,12.80
2022-10-29T08:41:02.646Z,12.90
2022-10-29T08:44:00.343Z,12.80
2022-10-29T08:46:50.452Z,12.60
2022-10-29T08:49:52.657Z,12.50
2022-10-29T08:52:27.397Z,12.60
2022-10-29T08:55:14.782Z,12.80
2022-10-29T08:57:47.709Z,12.80
2022-10-29T09:00:19.092Z,13.00
2022-10-29T09:02:46.148Z,13.00
2022-10-29T09:05:15.564Z,13.00
2022-10-29T09:08:02.317Z,13.10
2022-10-29T09:10:34.521Z,13.10
2022-10-29T09:13:27.853Z,13.30
2022-10-29T09:16:13.113Z,13.30
2022-10-29T09:18:42.563Z,13.30
2022-10-29T09:21:43.662Z,13.20
2022-10-29T09:24:10.374Z,13.30
2022-10-29T09:26:49.074Z,13.50
2022-10-29T09:29:37.581Z,13.60
2022-10-29T09:32:13.678Z,13.60
2022-10-29T09:34:40.312Z,13.70
2022-10-29T09:37:27.867Z,13.70
2022-10-29T09:39:57.149Z,13.80
2022-10-29T09:42:35.544Z,13.80
2022-10-29T09:45:05.834Z,13.90
2022-10-29T09:48:00.961Z,13.90
2022-10-29T09:50:33.927Z,14.00
2022-10-29T09:53:00.813Z,14.10
2022-10-29T09:55:34.250Z,14.10
2022-10-29T09:58:01.115Z,14.20
2022-10-29T10:00:30.289Z,14.20
2022-10-29T10:03:06.239Z,14.20
2022-10-29T10:05:36.983Z,14.20
2022-10-29T10:08:08.552Z,14.30
2022-10-29T10:10:39.424Z,14.40
2022-10-29T10:13:16.790Z,14.40
2022-10-29T10:15:55.191Z,14.50
2022-10-29T10:18:27.638Z,14.50
2022-10-29T10:21:07.494Z,14.60
2022-10-29T10:23:44.982Z,14.60
2022-10-29T10:26:30.925Z,14.70
2022-10-29T10:29:16.842Z,14.70
2022-10-29T10:32:11.150Z,14.80
2022-10-29T10:34:39.229Z,14.90
2022-10-29T10:37:10.705Z,14.90
2022-10-29T10:39:40.060Z,15.00
2022-10-29T10:42:24.192Z,15.00
2022-10-29T10:44:54.439Z,15.00
2022-10-29T10:47:25.299Z,15.00
2022-10-29T10:49:52.333Z,15.10
2022-10-29T10:52:26.408Z,15.20
2022-10-29T10:54:58.277Z,15.20
2022-10-29T10:57:28.670Z,15.30
2022-10-29T11:00:07.547Z,15.40
2022-10-29T11:02:39.697Z,15.60
2022-10-29T11:05:37.657Z,15.80
2022-10-29T11:08:16.413Z,16.10
2022-10-29T11:10:52.352Z,16.40
2022-10-29T11:13:22.998Z,16.70
2022-10-29T11:15:56.939Z,16.70
2022-10-29T11:18:34.758Z,17.00
2022-10-29T11:21:32.989Z,17.20
2022-10-29T11:24:13.787Z,17.40
2022-10-29T11:27:05.846Z,17.60
2022-10-29T11:29:47.325Z,17.90
2022-10-29T11:32:23.700Z,18.20
2022-10-29T11:35:04.565Z,18.40
2022-10-29T11:37:56.399Z,18.50
2022-10-29T11:40:24.724Z,18.60
2022-10-29T11:42:51.549Z,18.80
2022-10-29T11:45:30.326Z,18.90
2022-10-29T11:48:26.058Z,19.20
2022-10-29T11:51:40.145Z,19.30
2022-10-29T11:54:30.608Z,19.40
2022-10-29T11:57:02.931Z,19.50
2022-10-29T11:59:38.396Z,19.70
2022-10-29T12:02:21.893Z,19.80
2022-10-29T12:05:24.073Z,19.80
2022-10-29T12:08:05.735Z,20.10
2022-10-29T12:10:38.617Z,20.30
2022-10-29T12:13:29.050Z,20.50
2022-10-29T12:16:12.550Z,20.70
2022-10-29T12:18:55.944Z,20.80
2022-10-29T12:21:31.809Z,20.90
2022-10-29T12:24:16.611Z,21.20
2022-10-29T12:26:48.409Z,21.10
2022-10-29T12:29:25.998Z,21.10
2022-10-29T12:32:06.464Z,21.10
2022-10-29T12:34:41.907Z,21.30
2022-10-29T12:37:40.740Z,21.60
2022-10-29T12:40:22.574Z,21.60
2022-10-29T12:42:50.790Z,21.80
2022-10-29T12:45:34.793Z,22.00
2022-10-29T12:48:24.321Z,22.10
2022-10-29T12:51:07.405Z,22.30
2022-10-29T12:54:02.246Z,22.40
2022-10-29T12:56:30.045Z,22.60
2022-10-29T12:58:59.646Z,22.60
2022-10-29T13:01:38.299Z,22.70
2022-10-29T13:04:23.040Z,23.00
2022-10-29T13:07:04.555Z,23.20
2022-10-29T13:09:36.626Z,23.20
2022-10-29T13:12:11.024Z,22.80
2022-10-29T13:14:37.675Z,22.60
2022-10-29T13:17:18.200Z,22.60
2022-10-29T13:19:56.131Z,22.60
2022-10-29T13:22:54.523Z,22.50
2022-10-29T13:25:33.344Z,22.40
2022-10-29T13:28:01.115Z,22.20
2022-10-29T13:30:29.150Z,22.00
2022-10-29T13:32:56.494Z,21.90
2022-10-29T13:35:26.765Z,22.00
2022-10-29T13:38:10.458Z,22.10
2022-10-29T13:40:41.503Z,22.20
2022-10-29T13:43:18.330Z,22.00
2022-10-29T13:46:20.202Z,22.00
2022-10-29T13:48:48.288Z,21.90
2022-10-29T13:51:20.606Z,21.80
2022-10-29T13:53:52.578Z,21.80
2022-10-29T13:57:06.963Z,21.70
2022-10-29T13:59:45.463Z,21.60
2022-10-29T14:02:36.873Z,21.50
2022-10-29T14:05:15.651Z,21.40
2022-10-29T14:08:13.404Z,21.40
2022-10-29T14:10:40.035Z,21.30
2022-10-29T14:13:24.892Z,21.30
2022-10-29T14:16:24.711Z,21.20
2022-10-29T14:18:51.507Z,21.10
2022-10-29T14:21:36.534Z,21.10
2022-10-29T14:28:17.530Z,20.90
2022-10-29T14:30:58.157Z,20.90
2022-10-29T14:33:27.272Z,20.80
2022-10-29T14:36:07.961Z,20.80
2022-10-29T14:38:44.406Z,20.70
2022-10-29T14:41:12.198Z,20.70
2022-10-29T14:43:39.657Z,20.60
2022-10-29T14:46:27.431Z,20.60
2022-10-29T14:48:59.453Z,20.50
2022-10-29T14:51:26.849Z,20.50
2022-10-29T14:53:58.187Z,20.50
2022-10-29T14:56:31.687Z,20.40
2022-10-29T14:58:58.973Z,20.40
2022-10-29T15:01:25.743Z,20.20
2022-10-29T15:04:01.824Z,20.20
2022-10-29T15:06:30.002Z,20.20
2022-10-29T15:09:03.478Z,20.20
2022-10-29T15:11:57.478Z,20.20
2022-10-29T15:15:06.820Z,20.10
2022-10-29T15:17:34.371Z,19.90
2022-10-29T15:20:06.805Z,19.90
2022-10-29T15:22:37.466Z,19.90
2022-10-29T15:25:14.719Z,19.80
2022-10-29T15:27:42.659Z,19.80
2022-10-29T15:30:27.397Z,19.70
2022-10-29T15:32:59.547Z,19.60
2022-10-29T15:35:26.485Z,19.60
2022-10-29T15:37:53.326Z,19.50
2022-10-29T15:40:22.030Z,19.50
2022-10-29T15:42:48.992Z,19.40
2022-10-29T15:45:25.272Z,19.30
2022-10-29T15:48:28.470Z,19.30
2022-10-29T15:50:57.545Z,19.20
2022-10-29T15:53:24.238Z,19.20
2022-10-29T15:55:54.058Z,19.10
2022-10-29T15:58:23.302Z,19.00
2022-10-29T16:00:51.153Z,19.00
2022-10-29T16:03:23.514Z,18.90
2022-10-29T16:05:55.982Z,18.90
2022-10-29T16:08:34.234Z,18.80
2022-10-29T16:11:03.110Z,18.70
2022-10-29T16:13:30.463Z,18.70
2022-10-29T16:15:57.207Z,18.60
2022-10-29T16:18:24.223Z,18.40
2022-10-29T16:20:56.673Z,18.40
2022-10-29T16:23:23.400Z,18.30
2022-10-29T16:25:50.051Z,18.20
2022-10-29T16:28:16.815Z,18.20
2022-10-29T16:30:50.883Z,18.10
2022-10-29T16:33:18.984Z,18.00
2022-10-29T16:35:45.990Z,18.00
2022-10-29T16:38:12.693Z,17.90
2022-10-29T16:40:39.815Z,17.90
2022-10-29T16:43:06.464Z,17.70
2022-10-29T16:45:33.101Z,17.60
2022-10-29T16:48:00.080Z,17.60
2022-10-29T16:50:34.208Z,17.50
2022-10-29T16:53:11.064Z,17.50
2022-10-29T16:55:39.844Z,17.50
2022-10-29T16:58:09.028Z,17.40
2022-10-29T17:00:36.694Z,17.40
2022-10-29T17:03:09.920Z,17.40
2022-10-29T17:05:40.639Z,17.30
2022-10-29T17:08:07.480Z,17.20
2022-10-29T17:10:34.818Z,17.10
2022-10-29T17:13:02.153Z,17.00
2022-10-29T17:15:29.140Z,16.90
2022-10-29T17:17:56.057Z,16.90
2022-10-29T17:20:22.891Z,16.90
2022-10-29T17:22:49.563Z,16.90
2022-10-29T17:25:16.247Z,16.80
2022-10-29T17:27:43.045Z,16.80
2022-10-29T17:30:11.089Z,16.70
2022-10-29T17:32:38.022Z,16.70
2022-10-29T17:35:05.006Z,16.60
2022-10-29T17:37:31.886Z,16.50
2022-10-29T17:40:02.947Z,16.50
2022-10-29T17:42:33.756Z,16.60
2022-10-29T17:45:00.418Z,16.50
2022-10-29T17:47:27.206Z,16.50
2022-10-29T17:49:54.011Z,16.50
2022-10-29T17:52:20.651Z,16.40
2022-10-29T17:54:47.294Z,16.30
2022-10-29T17:57:13.930Z,16.10
2022-10-29T17:59:40.554Z,16.10
2022-10-29T18:02:10.772Z,16.10
2022-10-29T18:04:37.507Z,16.10
2022-10-29T18:07:04.200Z,16.10
2022-10-29T18:09:31.037Z,15.90
2022-10-29T18:11:57.698Z,15.80
2022-10-29T18:14:24.360Z,15.80
2022-10-29T18:16:51.018Z,15.80
2022-10-29T18:19:17.810Z,15.80
2022-10-29T18:21:44.642Z,15.80
2022-10-29T18:24:11.335Z,15.80
2022-10-29T18:26:38.054Z,15.70
2022-10-29T18:29:11.646Z,15.60
2022-10-29T18:31:42.080Z,15.40
2022-10-29T18:34:09.730Z,15.50
2022-10-29T18:36:36.555Z,15.50
2022-10-29T18:39:05.453Z,15.40
2022-10-29T18:41:32.362Z,15.30
2022-10-29T18:43:59.533Z,15.30
2022-10-29T18:46:26.498Z,15.20
2022-10-29T18:48:53.681Z,15.10
2022-10-29T18:51:31.949Z,15.10
2022-10-29T18:53:59.446Z,15.00
2022-10-29T18:56:27.439Z,15.00
2022-10-29T18:58:57.615Z,15.00
2022-10-29T19:01:31.366Z,14.90
2022-10-29T19:04:01.640Z,14.90
2022-10-29T19:06:30.392Z,15.00
2022-10-29T19:08:59.137Z,15.00
2022-10-29T19:11:26.362Z,14.90
2022-10-29T19:13:55.316Z,15.00
2022-10-29T19:16:22.664Z,14.90
2022-10-29T19:18:58.157Z,14.60
2022-10-29T19:21:25.884Z,14.60
2022-10-29T19:24:00.279Z,14.60
2022-10-29T19:26:29.203Z,14.60
2022-10-29T19:28:56.007Z,14.60
2022-10-29T19:31:28.147Z,14.60
2022-10-29T19:33:57.281Z,14.60
2022-10-29T19:36:24.904Z,14.50
2022-10-29T19:38:51.652Z,14.40
2022-10-29T19:41:19.341Z,14.40
2022-10-29T19:43:46.538Z,14.30
2022-10-29T19:46:15.784Z,14.20
2022-10-29T19:48:43.373Z,14.30
2022-10-29T19:51:10.765Z,14.30
2022-10-29T19:53:38.776Z,14.30
2022-10-29T19:56:09.146Z,14.20
2022-10-29T19:58:35.809Z,14.10
2022-10-29T20:01:07.914Z,14.10
2022-10-29T20:03:35.657Z,14.10
2022-10-29T20:06:02.510Z,14.10
2022-10-29T20:08:29.481Z,14.20
2022-10-29T20:11:00.216Z,14.10
2022-10-29T20:13:27.327Z,14.10
2022-10-29T20:15:54.107Z,14.10
2022-10-29T20:18:21.252Z,14.00
2022-10-29T20:20:54.647Z,13.90
2022-10-29T20:23:21.495Z,13.90
2022-10-29T20:25:48.157Z,13.90
2022-10-29T20:28:14.840Z,13.90
2022-10-29T20:30:41.520Z,13.90
2022-10-29T20:33:08.200Z,14.00
2022-10-29T20:35:34.853Z,14.00
2022-10-29T20:38:01.820Z,13.90
2022-10-29T20:40:28.624Z,13.90
2022-10-29T20:42:55.433Z,13.90
2022-10-29T20:45:22.192Z,13.90
2022-10-29T20:47:49.001Z,13.90
2022-10-29T20:50:15.733Z,13.90
2022-10-29T20:52:48.070Z,13.80
2022-10-29T20:55:15.497Z,13.70
2022-10-29T20:57:42.163Z,13.80
2022-10-29T21:00:10.112Z,13.80
2022-10-29T21:02:37.059Z,13.80
2022-10-29T21:05:04.043Z,13.70
2022-10-29T21:07:30.740Z,13.70
2022-10-29T21:09:57.468Z,13.70
2022-10-29T21:12:24.126Z,13.60
2022-10-29T21:14:50.794Z,13.70
2022-10-29T21:17:17.488Z,13.50
2022-10-29T21:19:44.194Z,13.50
2022-10-29T21:22:10.818Z,13.60
2022-10-29T21:24:39.213Z,13.50
2022-10-29T21:27:09.917Z,13.50
2022-10-29T21:29:36.722Z,13.50
2022-10-29T21:32:03.434Z,13.50
2022-10-29T21:34:30.117Z,13.40
2022-10-29T21:36:56.769Z,13.50
2022-10-29T21:39:23.434Z,13.50
2022-10-29T21:41:50.079Z,13.60
2022-10-29T21:44:16.987Z,13.60
2022-10-29T21:46:43.648Z,13.60
2022-10-29T21:49:10.328Z,13.70
2022-10-29T21:51:37.021Z,13.60
2022-10-29T21:54:03.792Z,13.50
2022-10-29T21:56:30.449Z,13.50
2022-10-29T21:58:57.173Z,13.40
2022-10-29T22:01:23.925Z,13.40
2022-10-29T22:03:50.788Z,13.40
2022-10-29T22:06:20.929Z,13.40
2022-10-29T22:08:52.064Z,13.40
2022-10-29T22:11:18.713Z,13.40
2022-10-29T22:13:45.377Z,13.40
2022-10-29T22:16:12.140Z,13.40
2022-10-29T22:18:39.695Z,13.40
2022-10-29T22:21:19.062Z,13.40
2022-10-29T22:23:53.326Z,13.30
2022-10-29T22:26:23.151Z,13.30
2022-10-29T22:28:50.141Z,13.20
2022-10-29T22:31:18.640Z,13.20
2022-10-29T22:33:45.526Z,13.30
2022-10-29T22:36:20.614Z,13.30
2022-10-29T22:38:51.672Z,13.20
2022-10-29T22:41:18.552Z,13.30
2022-10-29T22:43:45.478Z,13.10
2022-10-29T22:46:13.947Z,13.10
2022-10-29T22:48:40.893Z,13.00
2022-10-29T22:51:12.849Z,13.10
2022-10-29T22:53:39.648Z,13.10
2022-10-29T22:56:06.789Z,13.10
2022-10-29T22:58:33.803Z,13.10
2022-10-29T23:01:02.669Z,13.00
2022-10-29T23:03:29.460Z,13.00
2022-10-29T23:05:57.617Z,13.00
2022-10-29T23:08:24.889Z,12.80
2022-10-29T23:10:51.676Z,13.00
2022-10-29T23:13:18.334Z,13.00
2022-10-29T23:15:53.078Z,12.90
2022-10-29T23:18:19.934Z,13.00
2022-10-29T23:20:46.859Z,12.90
2022-10-29T23:23:14.273Z,12.90
2022-10-29T23:25:41.765Z,12.90
2022-10-29T23:28:09.382Z,13.00
2022-10-29T23:30:36.122Z,13.00
2022-10-29T23:33:02.794Z,13.00
2022-10-29T23:35:29.493Z,13.00
2022-10-29T23:37:56.565Z,13.00
2022-10-29T23:40:23.479Z,13.00
2022-10-29T23:42:50.127Z,13.00
2022-10-29T23:45:17.042Z,13.00
2022-10-29T23:47:43.694Z,13.00
2022-10-29T23:50:10.438Z,13.00
2022-10-29T23:52:37.105Z,12.90
2022-10-29T23:55:03.947Z,12.90
2022-10-29T23:57:30.638Z,12.90
2022-10-29T23:59:57.410Z,12.80
